Time;durP1;ratioP1;P1;durP2;ratioP2;P2;SDS_P1;SDS_P2;PMS_P1;PMS_P2;Temp;Humidity;BMP_temperature;BMP_pressure;BME280_temperature;BME280_humidity;BME280_pressure;Samples;Min_cycle;Max_cycle;Signal;HPM_P1;HPM_P2
2021/03/10 00:00:11;;;;;;;109.40;40.25;;;;;;;-5.81;62.52;100841.19;1765436;81;25329;-65
2021/03/10 00:02:40;;;;;;;163.95;54.13;;;;;;;-5.78;62.38;100829.47;1766233;81;25288;-67
2021/03/10 00:05:09;;;;;;;124.20;45.12;;;;;;;-5.76;62.42;100840.63;1735457;81;25521;-66
2021/03/10 00:07:46;;;;;;;165.10;57.45;;;;;;;-5.73;62.49;100836.31;1734924;81;25363;-68
2021/03/10 00:10:14;;;;;;;142.72;50.40;;;;;;;-5.70;62.72;100839.38;1766222;81;25700;-67
2021/03/10 00:12:42;;;;;;;189.25;64.03;;;;;;;-5.65;62.62;100836.19;1766188;81;25503;-68
2021/03/10 00:15:12;;;;;;;202.32;67.75;;;;;;;-5.65;62.71;100837.00;1766232;81;25498;-68
2021/03/10 00:17:42;;;;;;;173.60;59.13;;;;;;;-5.66;62.52;100833.23;1766271;81;25535;-70
2021/03/10 00:20:12;;;;;;;168.85;55.28;;;;;;;-5.66;62.46;100835.87;1766238;81;25427;-68
2021/03/10 00:22:40;;;;;;;153.85;55.35;;;;;;;-5.69;62.36;100835.73;1766263;81;26617;-67
2021/03/10 00:25:09;;;;;;;165.77;59.38;;;;;;;-5.70;62.34;100831.98;1766352;81;25646;-66
2021/03/10 00:27:35;;;;;;;150.22;50.50;;;;;;;-5.72;62.44;100831.34;1766674;81;25290;-68
2021/03/10 00:30:07;;;;;;;142.98;49.25;;;;;;;-5.74;62.47;100837.30;1766213;81;26057;-69
2021/03/10 00:32:34;;;;;;;147.13;51.88;;;;;;;-5.75;62.36;100833.05;1766212;81;25858;-67
2021/03/10 00:35:20;;;;;;;138.07;48.10;;;;;;;-5.77;62.37;100837.19;1765725;79;26841;-67
2021/03/10 00:37:47;;;;;;;137.25;50.58;;;;;;;-5.79;62.66;100839.17;1758279;78;25564;-75
2021/03/10 00:40:13;;;;;;;124.00;44.63;;;;;;;-5.80;62.97;100830.16;1739082;81;25655;-75
2021/03/10 00:42:40;;;;;;;116.05;43.63;;;;;;;-5.78;63.22;100825.52;1758182;81;25305;-74
2021/03/10 00:45:15;;;;;;;;;;;;;;;-5.74;63.53;100829.39;1760371;81;25477;-75
2021/03/10 00:47:42;;;;;;;108.05;39.42;;;;;;;-5.70;63.64;100828.84;1758097;80;25940;-76
2021/03/10 00:50:09;;;;;;;117.45;42.00;;;;;;;-5.65;63.65;100824.33;1757688;80;25798;-77
2021/03/10 00:52:36;;;;;;;132.12;47.25;;;;;;;-5.65;63.35;100825.14;1767407;80;26178;-75
2021/03/10 00:55:03;;;;;;;108.00;36.40;;;;;;;-5.66;63.37;100824.81;1705274;81;25307;-75
2021/03/10 00:57:29;;;;;;;82.37;31.65;;;;;;;-5.66;63.37;100826.13;1778953;77;26784;-76
2021/03/10 00:59:56;;;;;;;90.55;35.68;;;;;;;-5.65;63.47;100827.77;1708082;81;27744;-78
2021/03/10 01:02:23;;;;;;;101.70;35.58;;;;;;;-5.63;63.48;100827.08;1760310;81;25430;-77
2021/03/10 01:04:49;;;;;;;84.40;32.83;;;;;;;-5.58;63.57;100824.36;1760439;81;25260;-74
2021/03/10 01:07:16;;;;;;;87.17;33.02;;;;;;;-5.56;63.63;100830.28;1760306;81;25333;-73
2021/03/10 01:09:42;;;;;;;77.78;29.72;;;;;;;-5.52;63.66;100825.73;1760553;81;25452;-75
2021/03/10 01:12:10;;;;;;;90.67;34.50;;;;;;;-5.46;63.70;100828.14;1760432;81;25753;-75
2021/03/10 01:14:36;;;;;;;86.53;33.65;;;;;;;-5.44;63.60;100819.02;1760349;81;25580;-74
2021/03/10 01:17:03;;;;;;;107.78;40.70;;;;;;;-5.39;63.54;100818.97;1731419;81;25528;-74
2021/03/10 01:19:29;;;;;;;90.17;36.23;;;;;;;-5.36;63.54;100815.92;1760352;81;25316;-75
2021/03/10 01:21:56;;;;;;;101.65;39.92;;;;;;;-5.37;63.28;100815.12;1760524;81;25318;-71
2021/03/10 01:26:58;;;;;;;95.97;38.17;;;;;;;-5.33;63.41;100811.59;1677302;80;26705;-74
2021/03/10 01:29:24;;;;;;;101.40;37.25;;;;;;;-5.34;63.25;100806.84;1730348;82;25293;-74
2021/03/10 01:34:58;;;;;;;109.53;40.33;;;;;;;-5.28;62.84;100803.92;1845449;77;33889;-72
2021/03/10 01:37:28;;;;;;;99.55;39.83;;;;;;;-5.39;63.11;100801.32;1785277;80;25533;-73
2021/03/10 01:48:03;;;;;;;104.72;38.58;;;;;;;-5.55;63.31;100797.62;1787917;76;27008;-72
2021/03/10 01:52:59;;;;;;;85.83;34.92;;;;;;;-5.61;63.34;100791.30;1732036;82;27307;-68
2021/03/10 01:55:26;;;;;;;98.80;39.18;;;;;;;-5.67;63.09;100790.25;1732097;82;25655;-67
2021/03/10 01:57:54;;;;;;;94.10;35.15;;;;;;;-5.71;63.26;100792.13;1732366;82;26074;-68
2021/03/10 02:19:32;;;;;;;83.90;31.90;;;;;;;-6.08;63.38;100778.22;1779001;77;27327;-72
2021/03/10 02:22:28;;;;;;;75.37;30.77;;;;;;;-6.16;63.25;100781.81;1761222;81;25504;-73
2021/03/10 02:25:31;;;;;;;77.20;29.80;;;;;;;-6.19;63.38;100780.86;1857533;75;33057;-71
2021/03/10 02:30:55;;;;;;;76.17;30.52;;;;;;;-6.41;63.74;100776.05;1819627;78;26306;-73
2021/03/10 02:33:29;;;;;;;84.52;31.65;;;;;;;-6.48;63.96;100780.44;1838819;78;25491;-73
2021/03/10 02:36:11;;;;;;;86.15;32.48;;;;;;;-6.56;64.10;100780.03;1804192;79;25437;-73
2021/03/10 06:58:01;;;;;;;65.08;29.37;;;;;;;-2.83;65.55;100855.55;1782383;77;26840;-72
2021/03/10 07:00:27;;;;;;;60.48;29.07;;;;;;;-2.53;64.78;100859.07;1796611;78;25788;-73
2021/03/10 07:02:56;;;;;;;57.90;28.83;;;;;;;-2.33;64.50;100864.31;1751586;81;25804;-73
2021/03/10 07:05:25;;;;;;;58.38;27.42;;;;;;;-2.04;64.55;100864.30;1800366;79;25455;-72
2021/03/10 07:13:03;;;;;;;52.67;25.30;;;;;;;-1.30;62.67;100857.20;1725628;78;27155;-77
2021/03/10 07:15:30;;;;;;;50.05;25.43;;;;;;;-1.01;62.52;100861.84;1744177;81;25593;-78
2021/03/10 07:17:58;;;;;;;49.05;23.40;;;;;;;-0.83;60.83;100863.73;1715861;82;25452;-78
2021/03/10 07:20:25;;;;;;;48.13;24.30;;;;;;;-0.66;60.92;100871.15;1721693;83;25547;-78
2021/03/10 07:25:33;;;;;;;45.98;24.37;;;;;;;-0.05;60.00;100872.07;1735325;79;27328;-78
2021/03/10 07:28:14;;;;;;;47.13;25.10;;;;;;;0.19;59.64;100871.68;1709826;82;25524;-76
2021/03/10 07:30:45;;;;;;;46.10;23.90;;;;;;;0.47;59.33;100875.05;1739099;80;25728;-77
2021/03/10 07:35:54;;;;;;;49.20;25.52;;;;;;;1.21;57.95;100874.70;1757668;77;26861;-74
2021/03/10 07:38:27;;;;;;;52.43;25.50;;;;;;;1.31;56.93;100880.77;1802894;78;25708;-74
2021/03/10 07:41:01;;;;;;;53.58;27.70;;;;;;;1.55;56.16;100880.75;1796827;79;25632;-74
2021/03/10 07:46:40;;;;;;;49.00;25.88;;;;;;;1.99;55.85;100874.44;1761185;78;26629;-77
2021/03/10 07:49:23;;;;;;;50.50;26.97;;;;;;;2.87;53.99;100876.79;1748072;80;25740;-74
2021/03/10 07:51:53;;;;;;;53.45;25.57;;;;;;;3.52;53.18;100873.98;1717433;80;28632;-78
2021/03/10 07:54:27;;;;;;;50.75;26.62;;;;;;;4.11;52.51;100881.39;1726936;82;25601;-77
2021/03/10 07:57:14;;;;;;;54.80;27.48;;;;;;;3.97;51.14;100878.30;1794918;76;26015;-77
2021/03/10 08:00:03;;;;;;;48.63;25.27;;;;;;;3.91;51.95;100883.30;1771909;80;25162;-77
2021/03/10 08:02:42;;;;;;;48.05;26.70;;;;;;;3.96;51.24;100881.22;1762064;78;25641;-77
2021/03/10 08:05:23;;;;;;;57.35;28.62;;;;;;;4.13;51.50;100883.28;1744191;81;25705;-77
2021/03/10 08:07:53;;;;;;;49.50;27.32;;;;;;;4.39;51.62;100877.67;1764929;76;26407;-75
2021/03/10 08:10:26;;;;;;;50.50;26.65;;;;;;;4.69;50.46;100884.37;1837139;76;25770;-75
2021/03/10 08:12:53;;;;;;;49.98;25.92;;;;;;;4.80;49.79;100884.74;1865888;76;25154;-75
2021/03/10 08:15:24;;;;;;;43.28;25.97;;;;;;;4.89;49.11;100879.71;1861848;76;25307;-75
2021/03/10 08:18:06;;;;;;;51.48;27.82;;;;;;;4.99;49.41;100880.33;1868326;76;26608;-75
2021/03/10 08:20:37;;;;;;;47.15;25.45;;;;;;;5.10;48.45;100886.02;1844800;76;25416;-75
2021/03/10 08:23:06;;;;;;;49.83;26.27;;;;;;;5.23;48.44;100885.58;1834879;77;25467;-76
2021/03/10 08:25:38;;;;;;;49.40;26.42;;;;;;;5.54;48.92;100884.41;1834389;77;25813;-74
2021/03/10 08:28:13;;;;;;;48.48;26.82;;;;;;;5.73;48.11;100886.66;1832060;77;25275;-75
2021/03/10 08:30:42;;;;;;;49.90;26.70;;;;;;;5.87;47.07;100890.45;1834872;78;26537;-77
2021/03/10 08:33:10;;;;;;;52.90;27.73;;;;;;;5.89;46.72;100891.03;1834636;77;25977;-78
2021/03/10 08:35:38;;;;;;;58.00;26.93;;;;;;;5.93;46.47;100890.77;1834714;77;25471;-78
2021/03/10 08:38:05;;;;;;;52.20;26.82;;;;;;;6.10;46.55;100887.09;1825835;76;25248;-77
2021/03/10 08:40:34;;;;;;;57.93;28.38;;;;;;;6.20;46.29;100880.92;1834304;78;25575;-77
2021/03/10 08:43:02;;;;;;;49.90;26.33;;;;;;;6.39;46.31;100878.02;1834494;78;26528;-77
2021/03/10 08:45:35;;;;;;;55.38;28.10;;;;;;;6.65;46.33;100879.39;1834371;78;25665;-77
2021/03/10 08:48:06;;;;;;;48.80;25.27;;;;;;;6.84;45.37;100876.42;1834770;77;25600;-76
2021/03/10 08:50:40;;;;;;;50.58;26.85;;;;;;;6.89;45.08;100885.04;1834829;77;25439;-76
2021/03/10 08:53:09;;;;;;;51.95;27.13;;;;;;;6.88;44.13;100875.38;1834565;77;25445;-77
2021/03/10 08:55:36;;;;;;;46.25;24.90;;;;;;;6.89;44.16;100883.70;1834940;77;25670;-76
2021/03/10 08:58:13;;;;;;;39.00;21.82;;;;;;;7.00;44.32;100878.59;1834644;77;25253;-76
2021/03/10 09:00:41;;;;;;;39.08;21.80;;;;;;;7.18;43.79;100870.48;1839213;77;25461;-76
2021/03/10 09:03:17;;;;;;;45.78;23.25;;;;;;;7.28;43.81;100865.62;1794529;80;25623;-76
2021/03/10 09:09:43;;;;;;;;;;;;;;;7.90;43.38;100862.72;1799449;78;25757;-77
2021/03/10 09:12:14;;;;;;;38.70;21.07;;;;;;;8.15;41.79;100867.17;1761552;80;25286;-76
2021/03/10 09:14:42;;;;;;;38.95;19.73;;;;;;;8.21;41.64;100870.91;1798377;78;25530;-77
2021/03/10 09:17:09;;;;;;;41.08;20.75;;;;;;;8.37;41.46;100871.61;1805470;79;25392;-76
2021/03/10 09:19:40;;;;;;;39.50;20.40;;;;;;;8.55;41.38;100868.83;1799865;78;25402;-77
2021/03/10 09:22:20;;;;;;;35.95;20.48;;;;;;;8.67;39.84;100871.17;1792454;80;25863;-78
2021/03/10 09:24:50;;;;;;;37.30;18.95;;;;;;;8.62;40.35;100870.41;1792601;80;25085;-77
2021/03/10 09:27:30;;;;;;;38.78;19.45;;;;;;;8.87;40.37;100868.03;1791661;80;25579;-77
2021/03/10 09:30:08;;;;;;;38.80;19.17;;;;;;;8.93;39.77;100863.66;1791574;80;25426;-78
2021/03/10 09:32:43;;;;;;;35.38;19.52;;;;;;;9.13;39.70;100869.97;1791703;80;25441;-78
2021/03/10 09:35:21;;;;;;;29.25;14.68;;;;;;;9.29;39.63;100868.70;1791460;80;25832;-78
2021/03/10 09:38:01;;;;;;;21.37;11.73;;;;;;;9.26;38.34;100870.65;1797468;79;25533;-78
2021/03/10 09:40:52;;;;;;;25.85;14.43;;;;;;;8.92;37.42;100866.64;1808088;79;25544;-78
2021/03/10 09:43:28;;;;;;;24.87;14.20;;;;;;;8.45;37.26;100870.25;1798815;79;25549;-76
2021/03/10 09:45:59;;;;;;;26.55;15.63;;;;;;;8.07;37.26;100870.45;1791595;79;25154;-76
2021/03/10 09:48:39;;;;;;;23.70;12.05;;;;;;;7.99;37.59;100861.07;1803266;78;25802;-75
2021/03/10 09:51:19;;;;;;;24.47;13.35;;;;;;;7.66;36.41;100870.08;1819557;78;25634;-75
2021/03/10 09:53:50;;;;;;;25.57;13.72;;;;;;;7.13;36.67;100869.69;1824020;78;25615;-75
2021/03/10 09:56:19;;;;;;;;;;;;;;;6.74;37.66;100876.42;1825872;78;25742;-76
2021/03/10 09:58:55;;;;;;;22.48;12.30;;;;;;;6.38;37.23;100880.43;1815259;79;25582;-77
2021/03/10 10:01:27;;;;;;;25.72;10.95;;;;;;;6.07;37.85;100879.02;1823213;78;26786;-77
2021/03/10 10:03:56;;;;;;;20.43;11.75;;;;;;;5.84;38.11;100880.27;1782939;79;26468;-78
2021/03/10 10:06:25;;;;;;;21.05;10.10;;;;;;;5.64;38.29;100874.81;1815000;79;25362;-76
2021/03/10 10:08:56;;;;;;;19.95;9.80;;;;;;;5.59;38.78;100873.70;1758420;79;25680;-80
2021/03/10 10:11:26;;;;;;;20.15;8.58;;;;;;;5.64;39.00;100873.47;1837406;77;25624;-78
2021/03/10 10:13:52;;;;;;;14.15;8.25;;;;;;;5.60;37.74;100882.55;1807116;78;25790;-77
2021/03/10 10:16:19;;;;;;;13.32;8.08;;;;;;;5.27;37.29;100871.66;1834878;78;25387;-77
2021/03/10 10:18:47;;;;;;;13.03;6.87;;;;;;;5.01;37.45;100875.52;1786441;77;25321;-76
2021/03/10 10:21:14;;;;;;;13.13;7.05;;;;;;;4.84;37.28;100884.49;1769698;79;25676;-76
2021/03/10 10:23:41;;;;;;;16.05;7.33;;;;;;;4.73;37.95;100881.44;1717989;82;25605;-78
2021/03/10 10:26:08;;;;;;;17.52;8.25;;;;;;;4.76;38.68;100884.16;1711539;83;26684;-76
2021/03/10 10:28:38;;;;;;;13.28;7.20;;;;;;;4.86;39.07;100882.90;1711583;83;25444;-71
2021/03/10 10:31:08;;;;;;;16.42;7.80;;;;;;;4.96;38.77;100886.20;1699858;84;25544;-74
2021/03/10 10:36:59;;;;;;;16.05;8.05;;;;;;;5.38;38.95;100879.51;1753429;80;25604;-70
2021/03/10 10:39:28;;;;;;;21.00;8.03;;;;;;;6.44;39.32;100883.95;1751796;81;26537;-78
2021/03/10 10:41:54;;;;;;;12.40;6.97;;;;;;;6.70;39.54;100890.16;1750620;81;25593;-79
2021/03/10 10:44:21;;;;;;;11.90;7.25;;;;;;;6.67;38.79;100885.30;1764996;80;25565;-78
2021/03/10 10:46:48;;;;;;;13.15;7.15;;;;;;;6.31;37.74;100886.60;1750915;82;25526;-76
2021/03/10 10:49:14;;;;;;;11.88;7.20;;;;;;;5.84;37.13;100889.67;1750683;81;25549;-77
2021/03/10 10:51:42;;;;;;;12.95;8.05;;;;;;;5.61;38.31;100889.00;1750997;81;25982;-77
2021/03/10 10:54:11;;;;;;;12.43;7.70;;;;;;;5.31;38.00;100885.64;1751108;82;25590;-77
2021/03/10 10:56:38;;;;;;;20.75;8.90;;;;;;;5.09;38.39;100885.77;1751141;82;25578;-76
2021/03/10 10:59:05;;;;;;;15.80;9.03;;;;;;;4.91;38.24;100881.59;1751378;80;25610;-80
2021/03/10 11:01:32;;;;;;;18.95;9.78;;;;;;;4.80;39.21;100883.40;1751824;82;25304;-80
2021/03/10 11:03:59;;;;;;;17.55;9.25;;;;;;;4.70;39.61;100876.61;1750712;80;25844;-77
2021/03/10 11:06:25;;;;;;;13.45;8.20;;;;;;;4.66;39.78;100868.25;1751658;82;25551;-79
2021/03/10 11:08:52;;;;;;;19.07;9.98;;;;;;;4.71;40.54;100871.52;1751642;82;25524;-80
2021/03/10 11:11:18;;;;;;;17.42;8.43;;;;;;;4.78;40.63;100867.28;1750523;82;25484;-78
2021/03/10 11:13:45;;;;;;;18.70;8.70;;;;;;;5.03;40.60;100862.11;1750553;82;25565;-76
2021/03/10 11:16:11;;;;;;;14.65;8.03;;;;;;;5.65;41.73;100868.36;1750600;81;25776;-77
2021/03/10 11:22:16;;;;;;;14.87;8.78;;;;;;;6.78;41.19;100853.87;1505092;89;25758;-76
2021/03/10 11:24:51;;;;;;;16.80;8.95;;;;;;;7.32;40.58;100851.91;1831762;77;34956;-79
2021/03/10 11:27:21;;;;;;;17.12;9.93;;;;;;;7.79;39.62;100847.16;1830611;78;25613;-82
2021/03/10 11:29:46;;;;;;;22.40;11.25;;;;;;;8.29;38.72;100849.31;1818249;78;25956;-77
2021/03/10 11:34:56;;;;;;;18.92;10.25;;;;;;;9.19;37.67;100847.77;1819980;77;34961;-79
2021/03/10 11:37:22;;;;;;;18.55;10.80;;;;;;;9.53;38.66;100847.66;1797822;78;25523;-79
2021/03/10 11:39:49;;;;;;;19.82;10.93;;;;;;;9.82;37.98;100854.88;1837851;78;25752;-79
2021/03/10 11:42:16;;;;;;;19.07;11.33;;;;;;;10.11;37.26;100852.05;1837687;78;25173;-79
2021/03/10 11:44:43;;;;;;;21.85;11.18;;;;;;;9.91;35.79;100849.09;1836456;78;25270;-79
2021/03/10 11:47:09;;;;;;;18.48;11.78;;;;;;;9.53;35.14;100843.08;1832960;78;25270;-81
2021/03/10 11:49:37;;;;;;;20.65;11.33;;;;;;;9.13;34.83;100838.38;1789971;80;25622;-80
2021/03/10 11:52:05;;;;;;;19.45;12.85;;;;;;;8.68;34.89;100840.40;1789930;80;25967;-79
2021/03/10 11:54:32;;;;;;;21.95;12.63;;;;;;;8.28;34.76;100837.46;1789641;80;25618;-80
2021/03/10 11:56:59;;;;;;;18.42;11.60;;;;;;;7.78;35.12;100840.97;1790005;80;25559;-77
2021/03/10 11:59:26;;;;;;;23.32;13.28;;;;;;;7.40;35.75;100837.87;1789278;80;25603;-76
2021/03/10 12:01:52;;;;;;;20.40;12.18;;;;;;;7.04;35.83;100837.16;1789784;80;25668;-77
2021/03/10 12:04:19;;;;;;;20.17;11.80;;;;;;;6.67;36.85;100835.02;1789407;80;25765;-80
2021/03/10 12:06:46;;;;;;;20.15;12.35;;;;;;;6.39;36.87;100841.75;1809781;78;25604;-83
2021/03/10 12:09:13;;;;;;;21.77;12.37;;;;;;;6.11;37.35;100841.69;1807601;78;25588;-79
2021/03/10 12:11:39;;;;;;;21.90;12.80;;;;;;;6.12;37.45;100844.11;1820678;78;25567;-76
2021/03/10 12:14:06;;;;;;;24.40;13.70;;;;;;;6.19;37.17;100847.89;1820742;78;25578;-82
2021/03/10 12:16:32;;;;;;;21.48;13.62;;;;;;;5.92;37.07;100843.48;1822049;78;25764;-82
2021/03/10 12:19:00;;;;;;;20.08;12.47;;;;;;;5.93;37.95;100838.41;1821058;78;26383;-84
2021/03/10 12:21:35;;;;;;;22.87;12.78;;;;;;;6.06;37.59;100831.77;1819869;78;25285;-79
2021/03/10 12:24:03;;;;;;;23.45;13.28;;;;;;;6.05;37.35;100830.69;1814580;78;26307;-80
2021/03/10 12:26:35;;;;;;;22.93;12.88;;;;;;;5.95;38.10;100823.37;1818214;78;25146;-83
2021/03/10 12:29:02;;;;;;;23.05;13.45;;;;;;;5.82;37.82;100829.23;1816995;79;26079;-84
2021/03/10 12:31:31;;;;;;;24.92;13.48;;;;;;;5.53;37.05;100830.46;1817543;78;25248;-83
2021/03/10 12:33:58;;;;;;;19.25;12.15;;;;;;;5.17;37.20;100824.12;1795208;78;25342;-82
2021/03/10 12:36:24;;;;;;;24.18;12.75;;;;;;;4.96;37.78;100822.66;1781524;80;25448;-76
2021/03/10 12:38:51;;;;;;;20.95;12.07;;;;;;;4.79;37.90;100822.01;1790657;79;25621;-75
2021/03/10 12:41:17;;;;;;;25.30;13.18;;;;;;;4.62;38.25;100822.94;1770284;81;25754;-75
2021/03/10 12:43:44;;;;;;;20.57;14.35;;;;;;;4.45;38.68;100824.41;1757513;81;25526;-74
2021/03/10 12:46:11;;;;;;;22.02;11.85;;;;;;;4.66;39.52;100825.92;1725065;83;25718;-76
2021/03/10 12:48:37;;;;;;;24.55;12.05;;;;;;;4.97;39.21;100819.43;1696332;83;25583;-77
2021/03/10 12:51:05;;;;;;;22.32;12.63;;;;;;;5.05;38.86;100822.97;1751306;81;25658;-76
2021/03/10 12:53:33;;;;;;;29.65;12.18;;;;;;;5.14;39.34;100822.78;1751647;81;27195;-76
2021/03/10 12:56:01;;;;;;;20.95;12.82;;;;;;;5.55;40.01;100822.98;1751436;81;25345;-75
2021/03/10 12:58:31;;;;;;;;;;;;;;;6.02;39.23;100822.61;1754124;81;25586;-75
2021/03/10 13:00:59;;;;;;;18.92;11.28;;;;;;;6.45;39.49;100814.33;1751608;81;25529;-75
2021/03/10 13:03:26;;;;;;;21.23;11.83;;;;;;;6.80;38.37;100814.87;1753229;81;25595;-84
2021/03/10 13:05:53;;;;;;;25.77;12.65;;;;;;;6.98;38.02;100822.09;1758357;81;25781;-83
2021/03/10 13:08:20;;;;;;;19.90;12.20;;;;;;;7.00;36.54;100815.38;1733931;81;25313;-84
2021/03/10 13:10:47;;;;;;;17.82;11.63;;;;;;;6.73;36.22;100804.94;1757721;78;25309;-83
2021/03/10 13:13:13;;;;;;;22.00;12.03;;;;;;;6.58;36.47;100820.52;1757255;79;25301;-82
2021/03/10 13:15:40;;;;;;;24.25;13.08;;;;;;;6.40;36.77;100815.67;1730322;81;25177;-80
2021/03/10 13:18:06;;;;;;;22.45;11.90;;;;;;;6.24;36.67;100821.03;1757951;81;25843;-79
2021/03/10 13:20:35;;;;;;;21.75;11.38;;;;;;;6.07;36.70;100823.96;1758020;79;25278;-81
2021/03/10 13:23:04;;;;;;;19.70;11.85;;;;;;;5.93;36.69;100820.95;1764812;80;25489;-77
2021/03/10 13:25:30;;;;;;;22.07;12.28;;;;;;;5.79;37.26;100819.84;1755520;81;25355;-76
2021/03/10 13:27:57;;;;;;;20.48;11.48;;;;;;;5.63;37.16;100824.88;1754460;81;26227;-77
2021/03/10 13:30:24;;;;;;;23.42;12.98;;;;;;;5.48;37.02;100822.93;1757196;81;26730;-76
2021/03/10 13:32:50;;;;;;;23.27;13.60;;;;;;;5.35;37.05;100822.34;1752487;81;25609;-76
2021/03/10 13:35:17;;;;;;;20.30;12.78;;;;;;;5.23;37.07;100821.75;1721687;81;25324;-77
2021/03/10 13:37:44;;;;;;;23.52;12.55;;;;;;;5.09;37.30;100815.22;1749378;81;25553;-77
2021/03/10 13:40:12;;;;;;;24.70;13.88;;;;;;;4.92;36.94;100818.05;1756920;81;25599;-77
2021/03/10 13:42:39;;;;;;;23.25;11.90;;;;;;;4.75;37.95;100819.55;1738931;81;25885;-76
2021/03/10 13:45:07;;;;;;;22.98;12.50;;;;;;;4.66;37.88;100821.89;1738077;81;25649;-77
2021/03/10 13:47:38;;;;;;;24.32;12.50;;;;;;;4.58;37.88;100816.49;1737615;81;25256;-85
2021/03/10 13:50:05;;;;;;;18.70;11.63;;;;;;;4.50;37.76;100819.64;1764217;81;25174;-86
2021/03/10 13:52:32;;;;;;;23.42;11.53;;;;;;;4.43;37.64;100831.10;1764056;81;25493;-80
2021/03/10 13:54:59;;;;;;;23.40;12.33;;;;;;;4.34;38.10;100826.70;1763368;81;25905;-79
2021/03/10 13:57:25;;;;;;;22.93;12.37;;;;;;;4.28;38.14;100822.39;1763957;81;25634;-79
2021/03/10 13:59:52;;;;;;;22.75;12.10;;;;;;;4.23;38.54;100814.30;1764028;81;25548;-78
2021/03/10 14:02:19;;;;;;;20.17;12.33;;;;;;;4.10;38.11;100816.34;1763511;81;25472;-78
2021/03/10 14:04:45;;;;;;;21.62;11.60;;;;;;;4.01;38.10;100807.66;1763333;81;25499;-78
2021/03/10 14:07:12;;;;;;;23.20;11.60;;;;;;;3.97;38.51;100800.67;1763721;81;25868;-79
2021/03/10 14:09:39;;;;;;;23.60;12.82;;;;;;;4.02;38.57;100809.27;1764456;81;25798;-82
2021/03/10 14:12:06;;;;;;;22.55;12.73;;;;;;;4.07;38.15;100810.65;1764483;81;25359;-85
2021/03/10 14:14:33;;;;;;;20.70;12.43;;;;;;;4.07;38.07;100817.34;1765041;81;25426;-80
2021/03/10 14:16:59;;;;;;;23.00;12.63;;;;;;;4.14;38.16;100815.80;1764109;81;25295;-79
2021/03/10 14:19:26;;;;;;;20.60;12.35;;;;;;;4.18;38.14;100808.36;1763736;81;25757;-77
2021/03/10 14:21:52;;;;;;;18.42;12.33;;;;;;;4.22;38.09;100808.66;1763104;81;25606;-77
2021/03/10 14:24:19;;;;;;;26.60;12.75;;;;;;;4.24;38.20;100815.91;1764014;81;25688;-81
2021/03/10 14:26:46;;;;;;;35.78;13.38;;;;;;;4.26;38.37;100811.92;1764086;81;25627;-80
2021/03/10 14:29:14;;;;;;;24.00;11.97;;;;;;;4.27;38.36;100810.88;1763329;81;25656;-79
2021/03/10 14:31:41;;;;;;;26.33;13.30;;;;;;;4.23;38.16;100813.77;1763694;81;26685;-80
2021/03/10 14:34:07;;;;;;;28.27;12.70;;;;;;;4.19;38.01;100811.33;1760075;81;25652;-79
2021/03/10 14:36:34;;;;;;;25.68;13.28;;;;;;;4.16;38.13;100823.08;1751356;81;25632;-80
2021/03/10 14:39:02;;;;;;;28.00;13.55;;;;;;;4.10;38.41;100815.51;1751635;81;26186;-82
2021/03/10 14:41:29;;;;;;;25.85;15.13;;;;;;;4.07;38.55;100820.85;1752736;81;25603;-79
2021/03/10 14:43:56;;;;;;;27.15;13.55;;;;;;;4.04;38.28;100814.66;1752273;81;25990;-78
2021/03/10 14:46:23;;;;;;;28.67;13.38;;;;;;;4.01;38.50;100815.69;1752331;81;25498;-79
2021/03/10 14:48:50;;;;;;;23.22;12.80;;;;;;;4.00;38.50;100818.08;1752187;81;25724;-82
2021/03/10 14:51:16;;;;;;;26.77;15.40;;;;;;;4.00;38.36;100821.59;1752553;81;25242;-80
2021/03/10 14:53:43;;;;;;;30.10;14.73;;;;;;;3.97;38.24;100820.75;1752104;81;25597;-76
2021/03/10 14:56:10;;;;;;;24.60;13.55;;;;;;;3.94;38.38;100818.56;1751845;81;25774;-79
2021/03/10 14:58:37;;;;;;;23.62;12.45;;;;;;;3.89;38.30;100816.64;1751637;81;25348;-78
2021/03/10 15:01:04;;;;;;;22.60;12.80;;;;;;;3.84;38.62;100822.47;1752124;81;25496;-77
2021/03/10 15:03:35;;;;;;;20.37;12.85;;;;;;;3.80;38.28;100814.65;1751532;81;25549;-78
2021/03/10 15:06:02;;;;;;;23.10;12.73;;;;;;;3.73;38.54;100818.34;1751557;81;25616;-75
2021/03/10 15:08:28;;;;;;;21.70;12.18;;;;;;;3.67;38.39;100813.18;1751975;81;25775;-78
2021/03/10 15:10:55;;;;;;;24.32;12.95;;;;;;;3.60;38.35;100810.70;1751679;81;25658;-77
2021/03/10 15:13:21;;;;;;;21.73;12.82;;;;;;;3.55;38.54;100807.42;1751437;81;25514;-75
2021/03/10 15:15:48;;;;;;;21.87;12.68;;;;;;;3.53;38.50;100812.22;1752396;81;25555;-76
2021/03/10 15:18:15;;;;;;;27.25;14.15;;;;;;;3.48;38.64;100805.47;1744588;81;25784;-79
2021/03/10 15:20:43;;;;;;;24.25;12.78;;;;;;;3.43;38.65;100809.95;1742255;81;26629;-81
2021/03/10 15:23:10;;;;;;;22.02;12.00;;;;;;;3.39;38.90;100809.64;1731924;82;25459;-79
2021/03/10 15:25:38;;;;;;;24.43;12.18;;;;;;;3.33;38.97;100810.09;1709374;84;25655;-78
2021/03/10 15:28:06;;;;;;;24.67;12.50;;;;;;;3.28;39.43;100817.24;1681062;84;25607;-77
2021/03/10 15:30:33;;;;;;;25.05;13.58;;;;;;;3.21;39.20;100809.39;1709408;84;25611;-76
2021/03/10 15:32:59;;;;;;;26.55;12.60;;;;;;;3.14;39.28;100806.90;1724935;81;25800;-82
2021/03/10 15:41:54;;;;;;;28.80;13.03;;;;;;;2.92;40.15;100801.51;1741461;77;27271;-69
2021/03/10 15:44:22;;;;;;;24.98;12.78;;;;;;;2.84;40.28;100802.45;1741528;80;25282;-69
2021/03/10 15:46:50;;;;;;;30.77;14.87;;;;;;;2.75;40.27;100802.06;1748914;80;25777;-68
2021/03/10 15:49:16;;;;;;;26.40;15.13;;;;;;;2.68;40.32;100808.91;1754824;81;25308;-68
2021/03/10 15:51:43;;;;;;;29.32;15.10;;;;;;;2.63;40.58;100808.02;1741696;80;25509;-69
2021/03/10 15:54:11;;;;;;;24.77;15.32;;;;;;;2.58;40.89;100814.89;1775612;80;25344;-67
2021/03/10 15:56:40;;;;;;;26.87;14.85;;;;;;;2.56;41.07;100813.52;1776116;80;25336;-69
2021/03/10 15:59:07;;;;;;;32.70;14.85;;;;;;;2.53;41.31;100805.45;1776510;80;25717;-69
2021/03/10 16:01:34;;;;;;;37.85;17.77;;;;;;;2.49;41.31;100803.00;1776365;80;25467;-68
2021/03/10 16:04:00;;;;;;;32.80;15.43;;;;;;;2.45;41.06;100803.19;1776313;80;25657;-68
2021/03/10 16:06:27;;;;;;;52.17;25.48;;;;;;;2.38;41.18;100804.70;1747550;80;25683;-69
2021/03/10 16:08:53;;;;;;;39.30;19.77;;;;;;;2.33;41.07;100814.47;1746027;80;25513;-67
2021/03/10 16:11:20;;;;;;;46.08;21.15;;;;;;;2.26;41.04;100811.95;1759178;81;25773;-69
2021/03/10 16:13:46;;;;;;;37.48;19.48;;;;;;;2.17;41.13;100812.87;1767983;80;25263;-69
2021/03/10 16:16:14;;;;;;;38.13;18.60;;;;;;;2.11;41.41;100809.02;1767935;81;25709;-69
2021/03/10 16:18:40;;;;;;;32.95;16.65;;;;;;;2.01;41.46;100813.13;1767794;81;25607;-69
2021/03/10 16:21:07;;;;;;;37.63;20.45;;;;;;;1.93;41.53;100814.84;1768168;81;25423;-69
2021/03/10 16:23:33;;;;;;;39.23;17.42;;;;;;;1.84;41.87;100814.41;1768339;81;26711;-68
2021/03/10 16:26:00;;;;;;;60.78;28.02;;;;;;;1.75;41.96;100817.16;1767930;81;25664;-68
2021/03/10 16:28:26;;;;;;;54.75;27.65;;;;;;;1.64;41.82;100817.48;1768198;81;25526;-67
2021/03/10 16:30:53;;;;;;;54.25;26.33;;;;;;;1.57;41.78;100807.48;1734137;82;25247;-67
2021/03/10 16:33:21;;;;;;;62.78;29.85;;;;;;;1.48;41.87;100804.38;1733913;82;25294;-68
2021/03/10 16:35:48;;;;;;;78.92;34.60;;;;;;;1.34;41.80;100805.67;1734534;82;25798;-76
2021/03/10 16:38:17;;;;;;;364.90;138.52;;;;;;;1.25;42.04;100805.75;1734216;82;25560;-86
2021/03/10 16:40:44;;;;;;;333.00;127.90;;;;;;;1.16;42.32;100803.97;1711993;82;25568;-81
2021/03/10 16:43:10;;;;;;;105.07;43.75;;;;;;;1.07;42.45;100800.86;1734167;82;25693;-77
2021/03/10 16:45:37;;;;;;;59.90;26.70;;;;;;;0.96;43.15;100804.33;1734201;82;25533;-78
2021/03/10 16:48:05;;;;;;;45.75;21.00;;;;;;;0.89;43.26;100804.97;1718432;82;25713;-65
2021/03/10 16:50:32;;;;;;;42.93;20.75;;;;;;;0.78;42.97;100804.44;1727649;82;25693;-66
2021/03/10 16:52:59;;;;;;;42.83;22.00;;;;;;;0.68;43.14;100805.00;1724098;82;25653;-68
2021/03/10 16:55:25;;;;;;;51.65;26.65;;;;;;;0.58;43.41;100794.11;1701520;81;25451;-67